createdAt,value
2019-04-22T00:00:40.734Z,9.78
2019-04-22T00:01:43.508Z,9.76
2019-04-22T00:02:52.600Z,9.74
2019-04-22T00:04:00.502Z,9.72
2019-04-22T00:05:07.291Z,9.72
2019-04-22T00:06:22.517Z,9.72
2019-04-22T00:07:34.236Z,9.71
2019-04-22T00:08:36.210Z,9.70
2019-04-22T00:09:41.816Z,9.69
2019-04-22T00:10:52.675Z,9.69
2019-04-22T00:11:49.399Z,9.69
2019-04-22T00:12:57.406Z,9.69
2019-04-22T00:13:58.154Z,9.67
2019-04-22T00:14:55.505Z,9.65
2019-04-22T00:15:59.270Z,9.63
2019-04-22T00:17:16.658Z,9.61
2019-04-22T00:18:13.424Z,9.59
2019-04-22T00:20:22.692Z,9.58
2019-04-22T00:21:25.739Z,9.57
2019-04-22T00:22:30.208Z,9.55
2019-04-22T00:23:36.945Z,9.52
2019-04-22T00:24:36.642Z,9.49
2019-04-22T00:25:42.105Z,9.46
2019-04-22T00:26:51.313Z,9.43
2019-04-22T00:28:59.291Z,9.38
2019-04-22T00:31:06.708Z,9.34
2019-04-22T00:32:05.659Z,9.33
2019-04-22T00:33:11.676Z,9.31
2019-04-22T00:34:14.394Z,9.28
2019-04-22T00:35:18.248Z,9.25
2019-04-22T00:36:23.752Z,9.21
2019-04-22T00:37:28.806Z,9.19
2019-04-22T00:39:55.100Z,9.16
2019-04-22T00:40:39.745Z,9.15
2019-04-22T00:41:48.755Z,9.15
2019-04-22T00:42:53.053Z,9.15
2019-04-22T00:43:56.775Z,9.16
2019-04-22T00:45:00.802Z,9.16
2019-04-22T00:46:02.925Z,9.17
2019-04-22T00:47:07.267Z,9.16
2019-04-22T00:48:16.435Z,9.14
2019-04-22T00:49:59.831Z,9.12
2019-04-22T00:51:29.049Z,9.10
2019-04-22T00:52:28.124Z,9.08
2019-04-22T00:53:36.026Z,9.07
2019-04-22T00:54:42.208Z,9.06
2019-04-22T00:55:40.402Z,9.03
2019-04-22T00:56:42.208Z,9.01
2019-04-22T00:57:52.024Z,8.98
2019-04-22T00:58:54.745Z,8.95
2019-04-22T00:59:58.232Z,8.94
2019-04-22T01:01:03.366Z,8.93
2019-04-22T01:02:06.798Z,8.91
2019-04-22T01:03:19.699Z,8.89
2019-04-22T01:04:23.124Z,8.85
2019-04-22T01:05:21.353Z,8.80
2019-04-22T01:07:27.118Z,8.63
2019-04-22T01:08:43.193Z,8.52
2019-04-22T01:09:41.852Z,8.40
2019-04-22T01:11:44.999Z,8.14
2019-04-22T01:12:50.002Z,8.03
2019-04-22T01:13:55.675Z,7.93
2019-04-22T01:15:01.107Z,7.85
2019-04-22T01:16:09.464Z,7.79
2019-04-22T01:17:06.396Z,7.74
2019-04-22T01:18:13.173Z,7.72
2019-04-22T01:19:17.711Z,7.72
2019-04-22T01:20:37.830Z,7.70
2019-04-22T01:21:28.917Z,7.70
2019-04-22T01:22:38.376Z,7.70
2019-04-22T01:23:27.818Z,7.69
2019-04-22T01:24:37.104Z,7.68
2019-04-22T01:25:39.228Z,7.65
2019-04-22T01:26:36.287Z,7.61
2019-04-22T01:27:41.829Z,7.57
2019-04-22T01:28:42.269Z,7.52
2019-04-22T01:29:46.735Z,7.46
2019-04-22T01:30:46.904Z,7.41
2019-04-22T01:31:43.843Z,7.37
2019-04-22T01:32:49.332Z,7.31
2019-04-22T01:34:08.179Z,7.26
2019-04-22T01:35:08.458Z,7.23
2019-04-22T01:36:13.694Z,7.21
2019-04-22T01:37:20.275Z,7.19
2019-04-22T01:38:23.354Z,7.18
2019-04-22T01:39:40.362Z,7.17
2019-04-22T01:40:45.490Z,7.13
2019-04-22T01:42:16.868Z,7.10
2019-04-22T01:42:56.020Z,7.07
2019-04-22T01:44:03.278Z,7.05
2019-04-22T01:45:03.346Z,7.02
2019-04-22T01:46:03.006Z,7.00
2019-04-22T01:47:06.608Z,6.98
2019-04-22T01:48:10.475Z,6.96
2019-04-22T01:49:18.922Z,6.93
2019-04-22T01:50:24.045Z,6.93
2019-04-22T01:51:35.457Z,6.91
2019-04-22T01:52:23.736Z,6.89
2019-04-22T01:53:33.727Z,6.88
2019-04-22T01:54:45.493Z,6.87
2019-04-22T01:55:39.873Z,6.85
2019-04-22T01:56:51.350Z,6.84
2019-04-22T01:57:47.512Z,6.83
2019-04-22T01:58:48.243Z,6.82
2019-04-22T01:59:45.825Z,6.80
2019-04-22T02:01:00.234Z,6.79
2019-04-22T02:02:07.781Z,6.77
2019-04-22T02:03:14.110Z,6.75
2019-04-22T02:04:24.048Z,6.74
2019-04-22T02:05:17.702Z,6.73
2019-04-22T02:06:27.690Z,6.72
2019-04-22T02:07:23.550Z,6.72
2019-04-22T02:08:37.940Z,6.72
2019-04-22T02:09:53.425Z,6.72
2019-04-22T02:10:39.153Z,6.73
2019-04-22T02:11:45.503Z,6.73
2019-04-22T02:12:46.996Z,6.75
2019-04-22T02:13:52.346Z,6.77
2019-04-22T02:14:50.366Z,6.80
2019-04-22T02:15:58.777Z,6.81
2019-04-22T02:18:18.339Z,6.81
2019-04-22T02:19:20.719Z,6.81
2019-04-22T02:20:16.887Z,6.81
2019-04-22T02:21:20.441Z,6.81
2019-04-22T02:22:42.838Z,6.81
2019-04-22T02:24:41.203Z,6.80
2019-04-22T02:25:42.789Z,6.79
2019-04-22T02:26:40.179Z,6.78
2019-04-22T02:27:46.105Z,6.76
2019-04-22T02:28:47.981Z,6.74
2019-04-22T02:29:51.976Z,6.73
2019-04-22T02:31:22.977Z,6.72
2019-04-22T02:32:24.764Z,6.72
2019-04-22T02:33:40.929Z,6.69
2019-04-22T02:34:37.471Z,6.67
2019-04-22T02:35:36.580Z,6.66
2019-04-22T02:37:35.950Z,6.64
2019-04-22T02:39:34.485Z,6.63
2019-04-22T02:40:56.239Z,6.63
2019-04-22T02:41:41.553Z,6.63
2019-04-22T02:42:58.105Z,6.63
2019-04-22T02:44:04.074Z,6.63
2019-04-22T02:44:53.612Z,6.64
2019-04-22T02:47:15.566Z,6.66
2019-04-22T02:48:26.065Z,6.67
2019-04-22T02:49:22.659Z,6.68
2019-04-22T02:51:26.171Z,6.71
2019-04-22T02:52:31.014Z,6.74
2019-04-22T02:54:11.636Z,6.76
2019-04-22T02:55:44.269Z,6.84
2019-04-22T02:59:03.545Z,6.97
2019-04-22T03:01:05.423Z,7.07
2019-04-22T03:02:07.709Z,7.11
2019-04-22T03:04:20.635Z,7.17
2019-04-22T03:05:27.901Z,7.19
2019-04-22T03:06:32.830Z,7.21
2019-04-22T03:07:25.880Z,7.22
2019-04-22T03:09:40.383Z,7.24
2019-04-22T03:10:49.363Z,7.24
2019-04-22T03:12:49.008Z,7.26
2019-04-22T03:14:01.281Z,7.27
2019-04-22T03:15:07.378Z,7.28
2019-04-22T03:16:08.344Z,7.28
2019-04-22T03:17:11.333Z,7.29
2019-04-22T03:18:09.747Z,7.29
2019-04-22T03:20:14.226Z,7.26
2019-04-22T03:21:29.236Z,7.25
2019-04-22T03:22:21.045Z,7.24
2019-04-22T03:27:40.141Z,7.02
2019-04-22T03:29:13.337Z,6.93
2019-04-22T03:30:16.342Z,6.84
2019-04-22T03:32:33.494Z,6.61
2019-04-22T03:36:58.139Z,6.34
2019-04-22T03:37:34.022Z,6.32
2019-04-22T03:38:45.672Z,6.32
2019-04-22T03:39:45.444Z,6.32
2019-04-22T03:42:05.245Z,6.33
2019-04-22T03:44:15.088Z,6.33
2019-04-22T03:45:04.292Z,6.33
2019-04-22T03:45:51.289Z,6.33
2019-04-22T03:50:22.054Z,6.26
2019-04-22T03:52:24.958Z,6.21
2019-04-22T03:54:39.172Z,6.17
2019-04-22T03:55:41.332Z,6.15
2019-04-22T03:57:18.344Z,6.14
2019-04-22T03:57:49.786Z,6.13
2019-04-22T03:58:57.000Z,6.13
2019-04-22T03:59:59.357Z,6.12
2019-04-22T04:01:06.808Z,6.13
2019-04-22T04:04:19.155Z,6.16
2019-04-22T04:08:55.470Z,6.29
2019-04-22T04:09:49.323Z,6.33
2019-04-22T04:11:53.956Z,6.44
2019-04-22T04:13:52.179Z,6.55
2019-04-22T04:15:55.755Z,6.63
2019-04-22T04:18:01.318Z,6.70
2019-04-22T04:19:13.846Z,6.74
2019-04-22T04:20:21.394Z,6.77
2019-04-22T04:22:54.077Z,6.80
2019-04-22T04:23:37.815Z,6.81
2019-04-22T04:24:46.298Z,6.81
2019-04-22T04:25:42.214Z,6.80
2019-04-22T04:27:04.111Z,6.78
2019-04-22T04:29:05.449Z,6.80
2019-04-22T04:31:02.652Z,6.86
2019-04-22T04:32:25.138Z,6.89
2019-04-22T04:33:05.078Z,6.92
2019-04-22T04:34:15.169Z,6.95
2019-04-22T04:35:23.500Z,6.99
2019-04-22T04:36:28.326Z,7.01
2019-04-22T04:37:40.677Z,7.03
2019-04-22T04:38:32.158Z,7.05
2019-04-22T04:39:40.537Z,7.09
2019-04-22T04:40:37.708Z,7.12
2019-04-22T04:42:46.217Z,7.15
2019-04-22T04:43:59.665Z,7.15
2019-04-22T04:45:11.034Z,7.15
2019-04-22T04:46:06.887Z,7.15
2019-04-22T04:47:17.668Z,7.14
2019-04-22T04:48:02.416Z,7.14
2019-04-22T04:49:19.197Z,7.13
2019-04-22T04:50:22.607Z,7.13
2019-04-22T04:52:39.819Z,7.11
2019-04-22T04:53:53.139Z,7.10
2019-04-22T04:54:35.960Z,7.09
2019-04-22T04:56:40.336Z,7.10
2019-04-22T04:57:56.926Z,7.10
2019-04-22T04:59:11.955Z,7.11
2019-04-22T05:00:22.061Z,7.12
2019-04-22T05:02:06.684Z,7.15
2019-04-22T05:05:20.305Z,7.23
2019-04-22T05:06:21.448Z,7.25
2019-04-22T05:07:36.185Z,7.29
2019-04-22T05:08:54.379Z,7.32
2019-04-22T05:09:26.317Z,7.37
2019-04-22T05:12:03.554Z,7.46
2019-04-22T05:14:55.118Z,7.57
2019-04-22T05:16:11.193Z,7.61
2019-04-22T05:17:18.342Z,7.65
2019-04-22T05:18:06.095Z,7.70
2019-04-22T05:21:16.324Z,7.85
2019-04-22T05:22:20.771Z,7.90
2019-04-22T05:23:33.340Z,7.96
2019-04-22T05:25:28.563Z,8.07
2019-04-22T05:26:46.628Z,8.12
2019-04-22T05:27:40.034Z,8.18
2019-04-22T05:28:43.345Z,8.23
2019-04-22T05:30:57.199Z,8.28
2019-04-22T05:30:58.959Z,8.34
2019-04-22T05:32:04.565Z,8.40
2019-04-22T05:33:01.586Z,8.45
2019-04-22T05:34:08.127Z,8.52
2019-04-22T05:36:18.622Z,8.74
2019-04-22T05:37:22.796Z,8.93
2019-04-22T05:38:27.976Z,9.15
2019-04-22T05:39:22.607Z,9.49
2019-04-22T05:40:41.128Z,9.94
2019-04-22T05:41:35.316Z,10.46
2019-04-22T05:42:34.507Z,10.94
2019-04-22T05:43:42.604Z,11.40
2019-04-22T05:44:50.015Z,11.82
2019-04-22T05:45:54.233Z,12.23
2019-04-22T05:46:58.887Z,12.60
2019-04-22T05:49:08.211Z,13.12
2019-04-22T05:50:08.192Z,13.28
2019-04-22T05:51:21.832Z,13.35
2019-04-22T05:52:14.818Z,13.42
2019-04-22T05:53:21.235Z,13.45
2019-04-22T05:54:27.782Z,13.50
2019-04-22T05:55:36.283Z,13.53
2019-04-22T05:56:37.143Z,13.58
2019-04-22T05:57:38.857Z,13.67
2019-04-22T05:58:53.313Z,13.74
2019-04-22T05:59:52.215Z,13.73
2019-04-22T06:01:23.635Z,13.74
2019-04-22T06:03:15.346Z,13.85
2019-04-22T06:05:13.902Z,14.02
2019-04-22T06:07:25.302Z,14.14
2019-04-22T06:08:25.648Z,14.16
2019-04-22T06:09:30.204Z,14.25
2019-04-22T06:10:39.455Z,14.35
2019-04-22T06:11:44.784Z,14.41
2019-04-22T06:12:32.672Z,14.42
2019-04-22T06:13:38.896Z,14.42
2019-04-22T06:14:54.255Z,14.29
2019-04-22T06:15:54.372Z,14.28
2019-04-22T06:17:10.799Z,14.32
2019-04-22T06:18:09.586Z,14.33
2019-04-22T06:20:10.484Z,14.23
2019-04-22T06:21:22.562Z,14.13
2019-04-22T06:22:34.316Z,14.17
2019-04-22T06:24:27.530Z,14.20
2019-04-22T06:25:55.018Z,14.16
2019-04-22T06:26:55.934Z,14.13
2019-04-22T06:27:42.841Z,14.12
2019-04-22T06:28:48.437Z,14.05
2019-04-22T06:29:46.339Z,14.03
2019-04-22T06:33:02.767Z,13.99
2019-04-22T06:34:17.650Z,13.92
2019-04-22T06:35:23.293Z,13.92
2019-04-22T06:36:24.519Z,14.00
2019-04-22T06:37:32.242Z,13.96
2019-04-22T06:38:37.634Z,13.99
2019-04-22T06:39:38.258Z,13.91
2019-04-22T06:40:42.287Z,13.75
2019-04-22T06:41:51.651Z,13.60
2019-04-22T06:42:52.392Z,13.62
2019-04-22T06:43:56.200Z,13.52
2019-04-22T06:45:02.733Z,13.52
2019-04-22T06:46:04.221Z,13.60
2019-04-22T06:47:05.265Z,13.57
2019-04-22T06:48:15.341Z,13.58
2019-04-22T06:49:20.734Z,13.62
2019-04-22T06:50:16.608Z,13.61
2019-04-22T06:51:20.080Z,13.65
2019-04-22T06:52:22.073Z,13.72
2019-04-22T06:53:29.685Z,13.81
2019-04-22T06:54:32.915Z,13.89
2019-04-22T06:55:41.294Z,13.95
2019-04-22T06:56:43.126Z,13.98
2019-04-22T06:57:46.087Z,13.93
2019-04-22T06:58:55.233Z,13.92
2019-04-22T06:59:59.040Z,14.04
2019-04-22T07:01:06.151Z,14.18
2019-04-22T07:03:33.305Z,14.23
2019-04-22T07:04:14.467Z,14.17
2019-04-22T07:05:19.739Z,14.12
2019-04-22T07:06:33.433Z,14.15
2019-04-22T07:07:29.717Z,14.17
2019-04-22T07:09:02.441Z,14.10
2019-04-22T07:10:44.854Z,14.04
2019-04-22T07:11:47.519Z,14.05
2019-04-22T07:12:49.279Z,14.09
2019-04-22T07:14:00.040Z,14.18
2019-04-22T07:14:53.485Z,14.25
2019-04-22T07:15:57.468Z,14.33
2019-04-22T07:17:01.867Z,14.40
2019-04-22T07:18:11.209Z,14.46
2019-04-22T07:19:18.425Z,14.51
2019-04-22T07:20:17.299Z,14.56
2019-04-22T07:21:23.680Z,14.62
2019-04-22T07:22:29.298Z,14.64
2019-04-22T07:23:35.677Z,14.67
2019-04-22T07:25:41.332Z,14.74
2019-04-22T07:26:46.945Z,14.79
2019-04-22T07:27:46.077Z,14.79
2019-04-22T07:28:50.457Z,14.74
2019-04-22T07:30:02.028Z,14.74
2019-04-22T07:31:05.045Z,14.77
2019-04-22T07:32:06.829Z,14.79
2019-04-22T07:34:24.062Z,14.86
2019-04-22T07:35:22.834Z,14.88
2019-04-22T07:37:39.104Z,14.95
2019-04-22T07:39:35.615Z,15.04
2019-04-22T07:40:43.879Z,15.09
2019-04-22T07:41:47.584Z,15.08
2019-04-22T07:42:49.093Z,15.08
2019-04-22T07:44:10.281Z,15.09
2019-04-22T07:44:59.344Z,15.12
2019-04-22T07:46:00.348Z,15.19
2019-04-22T07:47:18.461Z,15.24
2019-04-22T07:48:24.077Z,15.29
2019-04-22T07:49:18.825Z,15.33
2019-04-22T07:51:37.495Z,15.40
2019-04-22T07:52:27.775Z,15.40
2019-04-22T07:53:28.986Z,15.38
2019-04-22T07:54:43.146Z,15.41
2019-04-22T07:55:40.441Z,15.42
2019-04-22T07:56:43.892Z,15.44
2019-04-22T07:57:52.345Z,15.47
2019-04-22T07:58:56.874Z,15.50
2019-04-22T08:00:02.979Z,15.51
2019-04-22T08:01:08.803Z,15.53
2019-04-22T08:02:12.808Z,15.55
2019-04-22T08:04:30.287Z,15.56
2019-04-22T08:05:24.704Z,15.58
2019-04-22T08:06:26.208Z,15.56
2019-04-22T08:07:30.357Z,15.57
2019-04-22T08:08:35.616Z,15.63
2019-04-22T08:09:44.560Z,15.59
2019-04-22T08:10:48.621Z,15.67
2019-04-22T08:11:51.220Z,15.72
2019-04-22T08:12:55.016Z,15.73
2019-04-22T08:13:54.619Z,15.74
2019-04-22T08:15:00.344Z,15.73
2019-04-22T08:16:04.513Z,15.75
2019-04-22T08:17:36.268Z,15.74
2019-04-22T08:18:22.065Z,15.78
2019-04-22T08:19:23.569Z,15.80
2019-04-22T08:20:23.742Z,15.81
2019-04-22T08:21:22.340Z,15.89
2019-04-22T08:22:27.317Z,15.99
2019-04-22T08:23:37.433Z,16.10
2019-04-22T08:24:45.404Z,16.17
2019-04-22T08:25:43.135Z,16.16
2019-04-22T08:26:51.335Z,16.19
2019-04-22T08:27:51.901Z,16.19
2019-04-22T08:28:57.921Z,16.10
2019-04-22T08:30:06.482Z,16.06
2019-04-22T08:31:07.622Z,15.94
2019-04-22T08:32:28.614Z,15.94
2019-04-22T08:33:15.962Z,15.98
2019-04-22T08:34:20.944Z,16.04
2019-04-22T08:35:29.243Z,16.07
2019-04-22T08:36:54.056Z,16.16
2019-04-22T08:38:43.651Z,16.23
2019-04-22T08:39:54.619Z,16.20
2019-04-22T08:40:47.261Z,16.02
2019-04-22T08:42:05.429Z,15.91
2019-04-22T08:43:09.062Z,15.87
2019-04-22T08:44:10.561Z,15.84
2019-04-22T08:45:18.250Z,15.89
2019-04-22T08:46:13.473Z,15.90
2019-04-22T08:47:21.827Z,15.94
2019-04-22T08:48:18.627Z,15.92
2019-04-22T08:49:16.489Z,15.97
2019-04-22T08:50:38.848Z,15.97
2019-04-22T08:52:34.695Z,15.98
2019-04-22T08:53:40.347Z,16.01
2019-04-22T08:54:44.315Z,16.07
2019-04-22T08:56:58.186Z,16.16
2019-04-22T08:59:07.008Z,16.32
2019-04-22T09:00:02.927Z,16.44
2019-04-22T09:01:14.670Z,16.53
2019-04-22T09:02:19.940Z,16.57
2019-04-22T09:03:15.968Z,16.52
2019-04-22T09:04:16.211Z,16.49
2019-04-22T09:05:42.057Z,16.52
2019-04-22T09:06:47.856Z,16.61
2019-04-22T09:07:36.789Z,16.59
2019-04-22T09:08:40.655Z,16.59
2019-04-22T09:09:48.952Z,16.52
2019-04-22T09:10:51.897Z,16.53
2019-04-22T09:11:54.763Z,16.43
2019-04-22T09:14:06.195Z,16.35
2019-04-22T09:15:02.446Z,16.28
2019-04-22T09:16:10.640Z,16.21
2019-04-22T09:17:14.781Z,16.20
2019-04-22T09:18:23.225Z,16.30
2019-04-22T09:19:23.837Z,16.37
2019-04-22T09:20:26.801Z,16.44
2019-04-22T09:21:32.615Z,16.42
2019-04-22T09:22:38.669Z,16.33
2019-04-22T09:23:50.588Z,16.31
2019-04-22T09:25:51.147Z,16.37
2019-04-22T09:26:54.449Z,16.42
2019-04-22T09:27:57.184Z,16.41
2019-04-22T09:29:05.036Z,16.49
2019-04-22T09:30:06.151Z,16.60
2019-04-22T09:31:11.735Z,16.71
2019-04-22T09:32:34.769Z,16.80
2019-04-22T09:33:20.627Z,16.82
2019-04-22T09:34:30.395Z,16.84
2019-04-22T09:35:39.198Z,16.82
2019-04-22T09:36:34.202Z,16.77
2019-04-22T09:37:55.979Z,16.76
2019-04-22T09:38:41.184Z,16.61
2019-04-22T09:39:54.746Z,16.47
2019-04-22T09:40:52.638Z,16.37
2019-04-22T09:41:57.237Z,16.42
2019-04-22T09:43:08.452Z,16.38
2019-04-22T09:44:02.369Z,16.38
2019-04-22T09:45:11.250Z,16.33
2019-04-22T09:46:15.126Z,16.31
2019-04-22T09:47:19.249Z,16.40
2019-04-22T09:48:33.543Z,16.49
2019-04-22T09:50:40.449Z,16.59
2019-04-22T09:51:38.919Z,16.61
2019-04-22T09:52:45.654Z,16.62
2019-04-22T09:53:57.872Z,16.58
2019-04-22T09:54:59.863Z,16.63
2019-04-22T09:55:56.859Z,16.71
2019-04-22T09:56:56.506Z,16.82
2019-04-22T09:58:05.428Z,16.94
2019-04-22T09:59:07.497Z,16.93
2019-04-22T10:02:31.799Z,16.92
2019-04-22T10:03:29.661Z,16.85
2019-04-22T10:04:33.051Z,16.76
2019-04-22T10:05:32.797Z,16.78
2019-04-22T10:06:53.117Z,16.77
2019-04-22T10:07:43.249Z,16.76
2019-04-22T10:09:02.104Z,16.76
2019-04-22T10:09:59.696Z,16.80
2019-04-22T10:11:00.723Z,16.80
2019-04-22T10:11:58.680Z,16.72
2019-04-22T10:13:06.378Z,16.63
2019-04-22T10:14:29.049Z,16.56
2019-04-22T10:15:13.516Z,16.56
2019-04-22T10:16:27.480Z,16.57
2019-04-22T10:17:17.517Z,16.68
2019-04-22T10:18:28.907Z,16.72
2019-04-22T10:19:34.982Z,16.76
2019-04-22T10:20:38.258Z,16.66
2019-04-22T10:21:44.789Z,16.61
2019-04-22T10:22:46.018Z,16.65
2019-04-22T10:23:53.369Z,16.66
2019-04-22T10:24:55.290Z,16.72
2019-04-22T10:26:02.547Z,16.86
2019-04-22T10:27:02.771Z,17.04
2019-04-22T10:28:08.977Z,17.00
2019-04-22T10:29:14.097Z,17.02
2019-04-22T10:30:39.142Z,16.98
2019-04-22T10:31:28.088Z,16.91
2019-04-22T10:32:27.839Z,16.88
2019-04-22T10:33:21.945Z,16.84
2019-04-22T10:34:16.864Z,16.85
2019-04-22T10:35:17.148Z,16.87
2019-04-22T10:36:17.178Z,16.87
2019-04-22T10:37:23.400Z,16.84
2019-04-22T10:38:24.637Z,16.86
2019-04-22T10:39:41.189Z,16.92
2019-04-22T10:40:34.574Z,16.98
2019-04-22T10:41:38.956Z,17.05
2019-04-22T10:42:43.409Z,17.11
2019-04-22T10:43:47.604Z,17.10
2019-04-22T10:44:51.894Z,17.11
2019-04-22T10:45:55.525Z,17.01
2019-04-22T10:47:00.094Z,16.99
2019-04-22T10:48:04.181Z,17.01
2019-04-22T10:49:08.636Z,17.04
2019-04-22T10:50:14.270Z,17.06
2019-04-22T10:51:18.903Z,17.01
2019-04-22T10:52:21.699Z,17.03
2019-04-22T10:53:26.153Z,17.16
2019-04-22T10:54:31.477Z,17.18
2019-04-22T10:55:35.183Z,17.16
2019-04-22T10:56:39.278Z,17.11
2019-04-22T10:57:44.431Z,17.17
2019-04-22T10:58:48.924Z,17.18
2019-04-22T10:59:52.458Z,17.18
2019-04-22T11:00:58.165Z,17.21
2019-04-22T11:02:01.459Z,17.28
2019-04-22T11:03:06.497Z,17.31
2019-04-22T11:04:11.199Z,17.33
2019-04-22T11:05:14.574Z,17.27
2019-04-22T11:06:19.240Z,17.27
2019-04-22T11:07:31.081Z,17.18
2019-04-22T11:08:35.010Z,17.12
2019-04-22T11:09:34.097Z,17.24
2019-04-22T11:10:50.560Z,17.33
2019-04-22T11:11:48.750Z,17.36
2019-04-22T11:12:45.272Z,17.36
2019-04-22T11:13:49.696Z,17.36
2019-04-22T11:14:53.966Z,17.35
2019-04-22T11:15:58.512Z,17.34
2019-04-22T11:17:05.302Z,17.36
2019-04-22T11:18:07.450Z,17.40
2019-04-22T11:19:11.880Z,17.49
2019-04-22T11:20:15.840Z,17.59
2019-04-22T11:21:20.366Z,17.71
2019-04-22T11:22:29.986Z,17.77
2019-04-22T11:23:29.114Z,17.86
2019-04-22T11:24:34.690Z,17.94
2019-04-22T11:25:37.882Z,18.04
2019-04-22T11:26:43.156Z,17.86
2019-04-22T11:27:47.226Z,17.86
2019-04-22T11:28:51.754Z,17.85
2019-04-22T11:29:55.530Z,17.89
2019-04-22T11:31:00.768Z,17.97
2019-04-22T11:32:04.397Z,17.86
2019-04-22T11:33:08.722Z,17.80
2019-04-22T11:34:13.069Z,17.80
2019-04-22T11:35:17.415Z,17.78
2019-04-22T11:36:21.841Z,17.69
2019-04-22T11:37:26.226Z,17.84
2019-04-22T11:38:30.946Z,18.01
2019-04-22T11:39:36.684Z,18.08
2019-04-22T11:40:43.614Z,18.20
2019-04-22T11:41:44.383Z,18.36
2019-04-22T11:42:48.340Z,18.48
2019-04-22T11:43:53.593Z,18.59
2019-04-22T11:44:57.212Z,18.56
2019-04-22T11:46:01.396Z,18.41
2019-04-22T11:47:05.805Z,18.51
2019-04-22T11:48:11.211Z,18.36
2019-04-22T11:49:16.094Z,18.41
2019-04-22T11:50:19.893Z,18.48
2019-04-22T11:51:24.354Z,18.60
2019-04-22T11:52:28.816Z,18.57
2019-04-22T11:53:32.092Z,18.61
2019-04-22T11:54:36.896Z,18.58
2019-04-22T11:55:44.760Z,18.63
2019-04-22T11:56:47.461Z,18.72
2019-04-22T11:57:51.990Z,18.74
2019-04-22T11:58:57.048Z,18.90
2019-04-22T12:00:01.031Z,19.13
2019-04-22T12:01:06.422Z,19.12
2019-04-22T12:02:10.873Z,19.19
2019-04-22T12:03:14.738Z,19.18
2019-04-22T12:04:18.123Z,19.12
2019-04-22T12:05:23.777Z,19.07
2019-04-22T12:06:28.119Z,19.14
2019-04-22T12:07:34.464Z,19.11
2019-04-22T12:08:37.271Z,19.20
2019-04-22T12:09:39.953Z,19.15
2019-04-22T12:10:51.594Z,19.03
2019-04-22T12:11:49.515Z,19.10
2019-04-22T12:12:53.921Z,19.28
2019-04-22T12:13:57.947Z,19.37
2019-04-22T12:15:01.998Z,19.47
2019-04-22T12:16:07.513Z,19.63
2019-04-22T12:17:11.262Z,19.77
2019-04-22T12:18:15.370Z,19.77
2019-04-22T12:19:20.823Z,19.75
2019-04-22T12:20:25.381Z,19.66
2019-04-22T12:21:29.011Z,19.61
2019-04-22T12:22:33.974Z,19.52
2019-04-22T12:23:37.197Z,19.46
2019-04-22T12:24:42.521Z,19.37
2019-04-22T12:25:52.490Z,19.27
2019-04-22T12:26:50.675Z,19.28
2019-04-22T12:27:55.133Z,19.42
2019-04-22T12:28:59.330Z,19.64
2019-04-22T12:30:03.309Z,19.60
2019-04-22T12:31:07.616Z,19.56
2019-04-22T12:32:11.962Z,19.62
2019-04-22T12:33:17.011Z,19.65
2019-04-22T12:34:21.511Z,19.49
2019-04-22T12:35:26.287Z,19.43
2019-04-22T12:36:30.707Z,19.55
2019-04-22T12:37:42.936Z,19.66
2019-04-22T12:38:39.915Z,19.70
2019-04-22T12:39:43.476Z,19.70
2019-04-22T12:40:53.174Z,19.72
2019-04-22T12:41:52.154Z,19.81
2019-04-22T12:42:57.517Z,19.84
2019-04-22T12:44:01.015Z,19.80
2019-04-22T12:45:04.771Z,19.84
2019-04-22T12:46:10.146Z,19.93
2019-04-22T12:47:14.890Z,19.96
2019-04-22T12:48:19.093Z,19.95
2019-04-22T12:49:22.514Z,19.95
2019-04-22T12:50:31.550Z,20.01
2019-04-22T12:51:31.395Z,20.07
2019-04-22T12:52:43.702Z,20.07
2019-04-22T12:53:40.278Z,20.19
2019-04-22T12:54:44.615Z,20.28
2019-04-22T12:55:50.186Z,20.23
2019-04-22T12:56:53.431Z,20.18
2019-04-22T12:58:00.800Z,20.23
2019-04-22T12:59:03.693Z,20.30
2019-04-22T13:00:07.853Z,20.21
2019-04-22T13:01:10.984Z,20.11
2019-04-22T13:02:15.538Z,20.10
2019-04-22T13:03:20.379Z,20.09
2019-04-22T13:04:25.256Z,20.14
2019-04-22T13:05:29.195Z,19.91
2019-04-22T13:06:32.653Z,19.85
2019-04-22T13:07:38.000Z,19.86
2019-04-22T13:08:41.467Z,19.84
2019-04-22T13:09:45.786Z,19.85
2019-04-22T13:10:58.401Z,19.88
2019-04-22T13:11:55.060Z,19.85
2019-04-22T13:12:58.924Z,19.90
2019-04-22T13:14:03.362Z,19.86
2019-04-22T13:15:08.006Z,19.75
2019-04-22T13:16:13.356Z,19.79
2019-04-22T13:17:17.095Z,19.87
2019-04-22T13:18:29.393Z,20.00
2019-04-22T13:19:28.014Z,19.98
2019-04-22T13:20:30.471Z,19.86
2019-04-22T13:21:33.997Z,19.82
2019-04-22T13:22:38.867Z,19.73
2019-04-22T13:23:44.414Z,19.71
2019-04-22T13:24:47.982Z,19.73
2019-04-22T13:25:52.654Z,19.64
2019-04-22T13:26:57.067Z,19.55
2019-04-22T13:28:00.996Z,19.57
2019-04-22T13:29:05.285Z,19.43
2019-04-22T13:30:10.123Z,19.40
2019-04-22T13:31:13.980Z,19.36
2019-04-22T13:32:18.631Z,19.25
2019-04-22T13:33:23.187Z,19.12
2019-04-22T13:34:33.704Z,19.06
2019-04-22T13:35:31.847Z,19.16
2019-04-22T13:36:36.649Z,19.11
2019-04-22T13:37:41.089Z,19.02
2019-04-22T13:38:44.939Z,19.02
2019-04-22T13:39:49.279Z,19.01
2019-04-22T13:41:07.268Z,19.01
2019-04-22T13:42:02.290Z,18.99
2019-04-22T13:43:02.768Z,19.00
2019-04-22T13:44:07.062Z,19.03
2019-04-22T13:45:11.626Z,19.10
2019-04-22T13:46:16.640Z,19.19
2019-04-22T13:47:34.885Z,19.24
2019-04-22T13:48:38.734Z,19.23
2019-04-22T13:50:16.695Z,19.24
2019-04-22T13:51:15.132Z,19.23
2019-04-22T13:52:15.562Z,19.18
2019-04-22T13:53:18.424Z,19.16
2019-04-22T13:54:42.485Z,19.04
2019-04-22T13:55:16.220Z,19.04
2019-04-22T13:56:13.892Z,19.08
2019-04-22T13:57:22.950Z,19.13
2019-04-22T13:58:15.830Z,19.09
2019-04-22T13:59:18.351Z,19.06
2019-04-22T14:00:13.596Z,19.04
2019-04-22T14:01:16.564Z,19.05
2019-04-22T14:02:20.652Z,19.08
2019-04-22T14:03:24.999Z,19.14
2019-04-22T14:04:30.459Z,19.21
2019-04-22T14:05:34.944Z,19.23
2019-04-22T14:06:38.831Z,19.17
2019-04-22T14:07:43.155Z,19.18
2019-04-22T14:08:47.189Z,19.15
2019-04-22T14:09:51.253Z,19.10
2019-04-22T14:11:00.373Z,19.12
2019-04-22T14:12:05.218Z,19.17
2019-04-22T14:13:05.640Z,19.16
2019-04-22T14:14:12.733Z,19.04
2019-04-22T14:15:15.870Z,19.02
2019-04-22T14:16:19.581Z,18.83
2019-04-22T14:17:25.020Z,18.67
2019-04-22T14:18:28.727Z,18.63
2019-04-22T14:19:33.940Z,18.65
2019-04-22T14:20:36.908Z,18.69
2019-04-22T14:21:44.295Z,18.72
2019-04-22T14:22:46.307Z,18.73
2019-04-22T14:23:50.941Z,18.75
2019-04-22T14:24:54.546Z,18.79
2019-04-22T14:25:59.134Z,18.80
2019-04-22T14:27:17.572Z,18.84
2019-04-22T14:28:12.043Z,18.90
2019-04-22T14:29:11.711Z,18.93
2019-04-22T14:30:16.801Z,18.92
2019-04-22T14:31:20.503Z,18.89
2019-04-22T14:32:27.989Z,18.89
2019-04-22T14:33:30.126Z,18.82
2019-04-22T14:34:34.280Z,18.77
2019-04-22T14:35:38.458Z,18.73
2019-04-22T14:36:43.501Z,18.73
2019-04-22T14:37:47.817Z,18.74
2019-04-22T14:38:52.333Z,18.77
2019-04-22T14:39:55.782Z,18.76
2019-04-22T14:41:00.813Z,18.76
2019-04-22T14:42:21.611Z,18.70
2019-04-22T14:43:31.713Z,18.67
2019-04-22T14:45:50.682Z,18.60
2019-04-22T14:46:49.287Z,18.59
2019-04-22T14:47:53.956Z,18.57
2019-04-22T14:49:01.309Z,18.56
2019-04-22T14:49:59.089Z,18.55
2019-04-22T14:50:55.998Z,18.57
2019-04-22T14:52:08.326Z,18.58
2019-04-22T14:53:08.067Z,18.58
2019-04-22T14:54:12.436Z,18.57
2019-04-22T14:55:06.062Z,18.48
2019-04-22T14:56:02.287Z,18.47
2019-04-22T14:57:05.308Z,18.47
2019-04-22T14:58:10.950Z,18.49
2019-04-22T14:59:14.018Z,18.52
2019-04-22T15:00:19.762Z,18.55
2019-04-22T15:01:22.720Z,18.56
2019-04-22T15:02:27.856Z,18.54
2019-04-22T15:03:31.653Z,18.52
2019-04-22T15:04:37.272Z,18.52
2019-04-22T15:05:40.185Z,18.50
2019-04-22T15:06:47.092Z,18.45
2019-04-22T15:07:49.897Z,18.41
2019-04-22T15:08:54.560Z,18.36
2019-04-22T15:09:57.793Z,18.34
2019-04-22T15:11:02.194Z,18.35
2019-04-22T15:12:16.528Z,18.35
2019-04-22T15:13:11.543Z,18.32
2019-04-22T15:14:15.311Z,18.30
2019-04-22T15:15:19.656Z,18.24
2019-04-22T15:16:23.896Z,18.21
2019-04-22T15:17:29.180Z,18.20
2019-04-22T15:18:33.549Z,18.14
2019-04-22T15:19:38.023Z,18.13
2019-04-22T15:20:41.618Z,18.12
2019-04-22T15:21:46.970Z,18.09
2019-04-22T15:22:50.635Z,18.09
2019-04-22T15:23:54.421Z,18.10
2019-04-22T15:24:58.754Z,18.10
2019-04-22T15:26:04.565Z,18.07
2019-04-22T15:27:08.772Z,18.03
2019-04-22T15:28:13.318Z,17.98
2019-04-22T15:29:17.520Z,17.94
2019-04-22T15:30:21.455Z,17.86